Time,TemperatureF,DewpointF,PressureIn,WindDirection,WindDirectionDegrees,WindSpeedMPH,WindSpeedGustMPH,Humidity,HourlyPrecipIn,Conditions,Clouds,dailyrainin,SoftwareType,DateUTC
2013-05-17 00:01:00,61.3,48.6,29.94,WNW,286,0.0,0.0,63,0.00,,SKC,0.00,VWS V14.01,2013-05-17 04:01:00,
2013-05-17 00:06:00,61.0,48.3,29.94,WNW,285,0.0,0.0,63,0.00,,SKC,0.00,VWS V14.01,2013-05-17 04:06:00,
2013-05-17 00:11:00,60.9,48.2,29.94,WNW,286,0.0,0.0,63,0.00,,SKC,0.00,VWS V14.01,2013-05-17 04:11:00,
2013-05-17 00:16:00,60.9,48.7,29.94,WNW,285,0.0,0.0,64,0.00,,SKC,0.00,VWS V14.01,2013-05-17 04:16:00,
2013-05-17 00:21:00,60.7,48.9,29.94,WNW,286,0.0,0.0,65,0.00,,SKC,0.00,VWS V14.01,2013-05-17 04:21:00,
2013-05-17 00:26:00,60.5,48.7,29.94,WNW,286,0.0,0.0,65,0.00,,SKC,0.00,VWS V14.01,2013-05-17 04:26:00,
2013-05-17 00:31:00,60.4,48.6,29.94,WNW,285,2.0,3.0,65,0.00,,SKC,0.00,VWS V14.01,2013-05-17 04:31:00,
2013-05-17 00:36:00,60.2,48.4,29.94,WNW,286,0.0,1.0,65,0.00,,SKC,0.00,VWS V14.01,2013-05-17 04:36:00,
2013-05-17 00:41:00,60.1,47.9,29.94,WNW,286,0.0,0.0,64,0.00,,SKC,0.00,VWS V14.01,2013-05-17 04:41:00,
2013-05-17 00:46:00,60.1,47.9,29.94,WNW,286,0.0,0.0,64,0.00,,SKC,0.00,VWS V14.01,2013-05-17 04:46:00,
2013-05-17 00:51:00,60.1,48.7,29.94,WNW,286,3.0,4.0,66,0.00,,SKC,0.00,VWS V14.01,2013-05-17 04:51:00,
2013-05-17 00:56:00,59.8,48.4,29.94,WNW,286,0.0,0.0,66,0.00,,SKC,0.00,VWS V14.01,2013-05-17 04:56:00,
2013-05-17 01:01:00,59.8,48.0,29.94,WNW,285,0.0,0.0,65,0.00,,SKC,0.00,VWS V14.01,2013-05-17 05:01:00,
2013-05-17 01:06:00,60.1,48.3,29.94,WNW,285,0.0,0.0,65,0.00,,SKC,0.00,VWS V14.01,2013-05-17 05:06:00,
2013-05-17 01:11:00,59.9,48.1,29.94,WNW,286,0.0,0.0,65,0.00,,SKC,0.00,VWS V14.01,2013-05-17 05:11:00,
2013-05-17 01:16:00,60.1,48.3,29.94,WNW,285,0.0,0.0,65,0.00,,SKC,0.00,VWS V14.01,2013-05-17 05:16:00,
2013-05-17 01:21:00,60.2,48.4,29.94,WNW,286,0.0,0.0,65,0.00,,SKC,0.00,VWS V14.01,2013-05-17 05:21:00,
2013-05-17 01:26:00,60.2,48.0,29.94,WNW,286,0.0,0.0,64,0.00,,SKC,0.00,VWS V14.01,2013-05-17 05:26:00,
2013-05-17 01:31:00,60.4,48.2,29.94,WNW,285,0.0,0.0,64,0.00,,SKC,0.00,VWS V14.01,2013-05-17 05:31:00,
2013-05-17 01:36:00,60.2,48.4,29.94,WNW,286,0.0,0.0,65,0.00,,SKC,0.00,VWS V14.01,2013-05-17 05:36:00,
2013-05-17 01:41:00,59.9,48.5,29.94,WNW,286,0.0,0.0,66,0.00,,SKC,0.00,VWS V14.01,2013-05-17 05:41:00,
2013-05-17 01:46:00,59.8,48.8,29.93,WNW,285,3.0,3.0,67,0.00,,SKC,0.00,VWS V14.01,2013-05-17 05:46:00,
2013-05-17 01:51:00,59.3,49.1,29.93,WNW,286,0.0,2.0,69,0.00,,SKC,0.00,VWS V14.01,2013-05-17 05:51:00,
2013-05-17 01:56:00,59.5,48.9,29.93,WNW,286,0.0,0.0,68,0.00,,SKC,0.00,VWS V14.01,2013-05-17 05:56:00,
2013-05-17 02:01:00,59.8,48.8,29.92,WNW,286,0.0,0.0,67,0.00,,SKC,0.00,VWS V14.01,2013-05-17 06:01:00,
2013-05-17 02:06:00,59.9,48.5,29.92,WNW,285,0.0,0.0,66,0.00,,SKC,0.00,VWS V14.01,2013-05-17 06:06:00,
2013-05-17 02:11:00,59.8,49.2,29.92,WNW,285,0.0,0.0,68,0.00,,SKC,0.00,VWS V14.01,2013-05-17 06:11:00,
2013-05-17 02:16:00,59.3,49.5,29.92,WNW,286,0.0,0.0,70,0.00,,SKC,0.00,VWS V14.01,2013-05-17 06:16:00,
2013-05-17 02:21:00,59.0,48.9,29.92,WNW,286,0.0,0.0,69,0.00,,SKC,0.00,VWS V14.01,2013-05-17 06:21:00,
2013-05-17 02:26:00,59.2,48.7,29.92,WNW,286,0.0,0.0,68,0.00,,SKC,0.00,VWS V14.01,2013-05-17 06:26:00,
2013-05-17 02:31:00,59.3,49.9,29.92,WNW,286,2.0,2.0,71,0.00,,SKC,0.00,VWS V14.01,2013-05-17 06:31:00,
2013-05-17 02:36:00,59.3,49.9,29.92,WNW,285,0.0,0.0,71,0.00,,SKC,0.00,VWS V14.01,2013-05-17 06:36:00,
2013-05-17 02:41:00,59.5,48.5,29.92,WNW,285,0.0,0.0,67,0.00,,SKC,0.00,VWS V14.01,2013-05-17 06:41:00,
2013-05-17 02:46:00,59.5,49.3,29.92,WNW,285,0.0,0.0,69,0.00,,SKC,0.00,VWS V14.01,2013-05-17 06:46:00,
2013-05-17 02:51:00,59.3,50.3,29.92,WNW,285,0.0,0.0,72,0.00,,SKC,0.00,VWS V14.01,2013-05-17 06:51:00,
2013-05-17 02:56:00,59.2,49.8,29.92,WNW,285,0.0,0.0,71,0.00,,SKC,0.00,VWS V14.01,2013-05-17 06:56:00,
2013-05-17 03:01:00,59.2,49.0,29.92,WNW,286,0.0,0.0,69,0.00,,SKC,0.00,VWS V14.01,2013-05-17 07:01:00,
2013-05-17 03:06:00,59.0,49.2,29.92,WNW,286,0.0,0.0,70,0.00,,SKC,0.00,VWS V14.01,2013-05-17 07:06:00,
2013-05-17 03:11:00,58.9,49.5,29.92,WNW,286,0.0,0.0,71,0.00,,SKC,0.00,VWS V14.01,2013-05-17 07:11:00,
2013-05-17 03:16:00,58.9,49.9,29.93,WNW,286,0.0,0.0,72,0.00,,SKC,0.00,VWS V14.01,2013-05-17 07:16:00,
2013-05-17 03:21:00,59.2,49.0,29.93,WNW,286,0.0,0.0,69,0.00,,SKC,0.00,VWS V14.01,2013-05-17 07:21:00,
2013-05-17 03:26:00,59.5,48.9,29.93,WNW,285,0.0,0.0,68,0.00,,SKC,0.00,VWS V14.01,2013-05-17 07:26:00,
2013-05-17 03:31:00,59.5,49.3,29.93,WNW,286,0.0,0.0,69,0.00,,SKC,0.00,VWS V14.01,2013-05-17 07:31:00,
2013-05-17 03:36:00,59.2,50.2,29.93,WNW,286,0.0,0.0,72,0.00,,SKC,0.00,VWS V14.01,2013-05-17 07:36:00,
2013-05-17 03:41:00,59.2,50.2,29.93,WNW,286,0.0,0.0,72,0.00,,SKC,0.00,VWS V14.01,2013-05-17 07:41:00,
2013-05-17 03:46:00,58.7,50.5,29.94,WNW,286,0.0,0.0,74,0.00,,SKC,0.00,VWS V14.01,2013-05-17 07:46:00,
2013-05-17 03:51:00,58.6,50.7,29.94,WNW,285,2.0,3.0,75,0.00,,SKC,0.00,VWS V14.01,2013-05-17 07:51:00,
2013-05-17 03:56:00,58.4,50.9,29.94,WNW,286,0.0,0.0,76,0.00,,SKC,0.00,VWS V14.01,2013-05-17 07:56:00,
2013-05-17 04:01:00,58.3,51.1,29.94,WNW,286,0.0,0.0,77,0.00,,SKC,0.00,VWS V14.01,2013-05-17 08:01:00,
2013-05-17 04:06:00,58.3,50.8,29.94,WNW,286,0.0,0.0,76,0.00,,SKC,0.00,VWS V14.01,2013-05-17 08:06:00,
2013-05-17 04:11:00,58.4,51.2,29.94,WNW,286,0.0,0.0,77,0.00,,SKC,0.00,VWS V14.01,2013-05-17 08:11:00,
2013-05-17 04:16:00,58.4,51.2,29.95,WNW,286,0.0,0.0,77,0.00,,SKC,0.00,VWS V14.01,2013-05-17 08:16:00,
2013-05-17 04:21:00,58.6,51.4,29.95,WNW,286,0.0,0.0,77,0.00,,SKC,0.00,VWS V14.01,2013-05-17 08:21:00,
2013-05-17 04:26:00,58.4,51.6,29.95,WNW,285,0.0,0.0,78,0.00,,SKC,0.00,VWS V14.01,2013-05-17 08:26:00,
2013-05-17 04:31:00,58.3,51.8,29.95,WNW,286,0.0,0.0,79,0.00,,SKC,0.00,VWS V14.01,2013-05-17 08:31:00,
2013-05-17 04:36:00,58.3,51.8,29.95,WNW,286,0.0,0.0,79,0.00,,SKC,0.00,VWS V14.01,2013-05-17 08:36:00,
2013-05-17 04:41:00,58.3,51.8,29.95,WNW,285,0.0,0.0,79,0.00,,SKC,0.00,VWS V14.01,2013-05-17 08:41:00,
2013-05-17 04:46:00,58.3,51.1,29.96,WNW,286,0.0,0.0,77,0.00,,SKC,0.00,VWS V14.01,2013-05-17 08:46:00,
2013-05-17 04:51:00,58.1,51.3,29.96,WNW,286,0.0,0.0,78,0.00,,SKC,0.00,VWS V14.01,2013-05-17 08:51:00,
2013-05-17 04:56:00,57.8,51.7,29.96,WNW,286,0.0,3.0,80,0.00,,SKC,0.00,VWS V14.01,2013-05-17 08:56:00,
2013-05-17 05:01:00,57.6,52.2,29.96,WNW,286,0.0,0.0,82,0.00,,SKC,0.00,VWS V14.01,2013-05-17 09:01:00,
2013-05-17 05:06:00,57.8,52.3,29.96,WNW,286,0.0,0.0,82,0.00,,SKC,0.00,VWS V14.01,2013-05-17 09:06:00,
2013-05-17 05:11:00,58.1,51.6,29.96,WNW,286,0.0,0.0,79,0.00,,SKC,0.00,VWS V14.01,2013-05-17 09:11:00,
2013-05-17 05:16:00,58.3,52.2,29.96,WNW,286,0.0,0.0,80,0.00,,SKC,0.00,VWS V14.01,2013-05-17 09:16:00,
2013-05-17 05:21:00,58.4,52.3,29.96,WNW,286,0.0,0.0,80,0.00,,SKC,0.00,VWS V14.01,2013-05-17 09:21:00,
2013-05-17 05:26:00,58.4,51.9,29.96,WNW,286,0.0,0.0,79,0.00,,SKC,0.00,VWS V14.01,2013-05-17 09:26:00,
2013-05-17 05:31:00,58.4,51.9,29.96,WNW,285,0.0,0.0,79,0.00,,SKC,0.00,VWS V14.01,2013-05-17 09:31:00,
2013-05-17 05:36:00,58.4,51.6,29.96,WNW,285,0.0,0.0,78,0.00,,SKC,0.00,VWS V14.01,2013-05-17 09:36:00,
2013-05-17 05:41:00,58.4,51.9,29.96,WNW,286,0.0,0.0,79,0.00,,SKC,0.00,VWS V14.01,2013-05-17 09:41:00,
2013-05-17 05:46:00,58.3,52.2,29.96,WNW,286,0.0,0.0,80,0.00,,SKC,0.00,VWS V14.01,2013-05-17 09:46:00,
2013-05-17 05:51:00,58.4,51.9,29.96,WNW,285,0.0,0.0,79,0.00,,SKC,0.00,VWS V14.01,2013-05-17 09:51:00,
2013-05-17 05:56:00,58.9,51.4,29.96,WNW,286,3.0,3.0,76,0.00,,SKC,0.00,VWS V14.01,2013-05-17 09:56:00,
2013-05-17 06:01:00,59.2,52.0,29.96,WNW,285,0.0,0.0,77,0.00,,SKC,0.00,VWS V14.01,2013-05-17 10:01:00,
2013-05-17 06:06:00,59.3,51.8,29.96,WNW,285,0.0,0.0,76,0.00,,SKC,0.00,VWS V14.01,2013-05-17 10:06:00,
2013-05-17 06:11:00,59.3,52.5,29.96,WNW,285,0.0,0.0,78,0.00,,SKC,0.00,VWS V14.01,2013-05-17 10:11:00,
2013-05-17 06:16:00,59.3,52.5,29.97,WNW,285,0.0,0.0,78,0.00,,SKC,0.00,VWS V14.01,2013-05-17 10:16:00,
2013-05-17 06:21:00,59.2,52.7,29.97,WNW,286,0.0,0.0,79,0.00,,SKC,0.00,VWS V14.01,2013-05-17 10:21:00,
2013-05-17 06:25:00,59.0,52.8,29.97,WNW,286,0.0,0.0,80,0.00,,SKC,0.00,VWS V14.01,2013-05-17 10:25:00,
2013-05-17 06:30:00,58.9,52.8,29.98,WNW,286,0.0,0.0,80,0.00,,SKC,0.00,VWS V14.01,2013-05-17 10:30:00,
2013-05-17 06:35:00,59.0,52.8,29.98,WNW,286,0.0,0.0,80,0.00,,SKC,0.00,VWS V14.01,2013-05-17 10:35:00,
2013-05-17 06:40:00,58.9,53.1,29.98,WNW,285,0.0,0.0,81,0.00,,SKC,0.00,VWS V14.01,2013-05-17 10:40:00,
2013-05-17 06:45:00,59.0,52.5,29.98,WNW,285,0.0,0.0,79,0.00,,SKC,0.00,VWS V14.01,2013-05-17 10:45:00,
2013-05-17 06:50:00,59.2,53.0,29.98,WNW,286,0.0,0.0,80,0.00,,SKC,0.00,VWS V14.01,2013-05-17 10:50:00,
2013-05-17 06:55:00,59.2,53.0,29.98,WNW,286,0.0,0.0,80,0.00,,SKC,0.00,VWS V14.01,2013-05-17 10:55:00,
2013-05-17 07:00:00,59.5,53.0,29.98,WNW,286,0.0,0.0,79,0.00,,SKC,0.00,VWS V14.01,2013-05-17 11:00:00,
2013-05-17 07:05:00,59.9,54.1,29.98,WNW,285,0.0,0.0,81,0.00,,SKC,0.00,VWS V14.01,2013-05-17 11:05:00,
2013-05-17 07:10:00,60.5,54.0,29.98,WNW,285,0.0,0.0,79,0.00,,SKC,0.00,VWS V14.01,2013-05-17 11:10:00,
2013-05-17 07:15:00,61.2,54.6,29.99,WNW,286,0.0,0.0,79,0.00,,SKC,0.00,VWS V14.01,2013-05-17 11:15:00,
2013-05-17 07:20:00,61.5,54.6,29.99,WNW,285,0.0,0.0,78,0.00,,SKC,0.00,VWS V14.01,2013-05-17 11:20:00,
2013-05-17 07:25:00,61.8,55.2,29.99,WNW,286,0.0,0.0,79,0.00,,SKC,0.00,VWS V14.01,2013-05-17 11:25:00,
2013-05-17 07:30:00,62.4,55.1,29.99,WNW,286,0.0,0.0,77,0.00,,SKC,0.00,VWS V14.01,2013-05-17 11:30:00,
2013-05-17 07:35:00,62.7,55.0,29.99,WNW,286,0.0,0.0,76,0.00,,SKC,0.00,VWS V14.01,2013-05-17 11:35:00,
2013-05-17 07:40:00,63.2,55.5,29.99,WNW,294,0.0,0.0,76,0.00,,SKC,0.00,VWS V14.01,2013-05-17 11:40:00,
2013-05-17 07:45:00,63.9,55.5,29.98,WNW,294,0.0,0.0,74,0.00,,SKC,0.00,VWS V14.01,2013-05-17 11:45:00,
2013-05-17 07:50:00,64.5,56.0,29.98,WNW,294,0.0,0.0,74,0.00,,SKC,0.00,VWS V14.01,2013-05-17 11:50:00,
2013-05-17 07:55:00,64.3,55.5,29.98,West,270,0.0,0.0,73,0.00,,SKC,0.00,VWS V14.01,2013-05-17 11:55:00,
2013-05-17 08:00:00,64.3,55.5,29.99,West,269,0.0,0.0,73,0.00,,SKC,0.00,VWS V14.01,2013-05-17 12:00:00,
2013-05-17 08:05:00,64.7,55.5,29.99,West,269,0.0,0.0,72,0.00,,SKC,0.00,VWS V14.01,2013-05-17 12:05:00,
2013-05-17 08:10:00,65.6,55.6,29.99,West,269,0.0,0.0,70,0.00,,SKC,0.00,VWS V14.01,2013-05-17 12:10:00,
2013-05-17 08:15:00,66.6,56.1,29.99,West,269,0.0,0.0,69,0.00,,SKC,0.00,VWS V14.01,2013-05-17 12:15:00,
2013-05-17 08:20:00,67.4,56.1,29.99,West,269,0.0,0.0,67,0.00,,SKC,0.00,VWS V14.01,2013-05-17 12:20:00,
2013-05-17 08:25:00,67.8,56.5,29.99,SSW,208,0.0,0.0,67,0.00,,SKC,0.00,VWS V14.01,2013-05-17 12:25:00,
2013-05-17 08:30:00,68.1,56.3,29.99,South,186,0.0,0.0,66,0.00,,SKC,0.00,VWS V14.01,2013-05-17 12:30:00,
2013-05-17 08:35:00,68.6,56.4,29.99,South,186,0.0,1.0,65,0.00,,SKC,0.00,VWS V14.01,2013-05-17 12:35:00,
2013-05-17 08:40:00,69.4,57.6,29.99,South,183,0.0,0.0,66,0.00,,SKC,0.00,VWS V14.01,2013-05-17 12:40:00,
2013-05-17 08:45:00,69.8,57.1,29.99,South,183,0.0,0.0,64,0.00,,SKC,0.00,VWS V14.01,2013-05-17 12:45:00,
2013-05-17 08:50:00,70.1,57.4,29.99,South,183,0.0,0.0,64,0.00,,SKC,0.00,VWS V14.01,2013-05-17 12:50:00,
2013-05-17 08:55:00,70.9,59.0,29.99,SW,221,0.0,0.0,66,0.00,,SKC,0.00,VWS V14.01,2013-05-17 12:55:00,
2013-05-17 09:00:00,71.3,58.1,29.99,SW,221,0.0,0.0,63,0.00,,SKC,0.00,VWS V14.01,2013-05-17 13:00:00,
2013-05-17 09:05:00,72.0,58.7,29.99,South,174,0.0,1.0,63,0.00,,SKC,0.00,VWS V14.01,2013-05-17 13:05:00,
2013-05-17 09:10:00,72.5,59.6,29.99,South,174,0.0,1.0,64,0.00,,SKC,0.00,VWS V14.01,2013-05-17 13:10:00,
2013-05-17 09:15:00,73.3,60.4,29.99,South,174,0.0,1.0,64,0.00,,SKC,0.00,VWS V14.01,2013-05-17 13:15:00,
2013-05-17 09:20:00,74.2,59.4,29.99,South,174,0.0,0.0,60,0.00,,SKC,0.00,VWS V14.01,2013-05-17 13:20:00,
2013-05-17 09:25:00,74.2,59.0,29.99,South,174,0.0,1.0,59,0.00,,SKC,0.00,VWS V14.01,2013-05-17 13:25:00,
2013-05-17 09:30:00,74.2,59.4,30.00,South,174,1.0,2.0,60,0.00,,SKC,0.00,VWS V14.01,2013-05-17 13:30:00,
2013-05-17 09:35:00,73.7,57.0,30.00,SSE,158,0.0,1.0,56,0.00,,SKC,0.00,VWS V14.01,2013-05-17 13:35:00,
2013-05-17 09:40:00,73.5,58.8,30.00,SSE,158,0.0,2.0,60,0.00,,SKC,0.00,VWS V14.01,2013-05-17 13:40:00,
2013-05-17 09:45:00,74.2,59.4,30.00,SSE,158,0.0,2.0,60,0.00,,SKC,0.00,VWS V14.01,2013-05-17 13:45:00,
2013-05-17 09:50:00,74.7,59.0,30.00,SSE,158,0.0,1.0,58,0.00,,SKC,0.00,VWS V14.01,2013-05-17 13:50:00,
2013-05-17 09:55:00,75.1,58.8,30.00,SSE,158,0.0,2.0,57,0.00,,SKC,0.00,VWS V14.01,2013-05-17 13:55:00,
2013-05-17 10:00:00,75.3,58.5,30.00,SSE,158,0.0,2.0,56,0.00,,SKC,0.00,VWS V14.01,2013-05-17 14:00:00,
2013-05-17 10:05:00,76.0,60.2,30.00,SSE,158,0.0,1.0,58,0.00,,SKC,0.00,VWS V14.01,2013-05-17 14:05:00,
2013-05-17 10:10:00,77.2,59.8,30.00,SSE,158,0.0,1.0,55,0.00,,SKC,0.00,VWS V14.01,2013-05-17 14:10:00,
2013-05-17 10:15:00,77.4,60.5,30.00,SE,133,0.0,4.0,56,0.00,,SKC,0.00,VWS V14.01,2013-05-17 14:15:00,
2013-05-17 10:20:00,77.6,59.7,30.00,SE,133,0.0,2.0,54,0.00,,SKC,0.00,VWS V14.01,2013-05-17 14:20:00,
2013-05-17 10:25:00,77.4,58.4,30.00,SE,133,0.0,2.0,52,0.00,,SKC,0.00,VWS V14.01,2013-05-17 14:25:00,
2013-05-17 10:30:00,76.8,59.4,30.00,SE,133,0.0,1.0,55,0.00,,SKC,0.00,VWS V14.01,2013-05-17 14:30:00,
2013-05-17 10:35:00,76.3,60.0,30.00,SE,133,0.0,1.0,57,0.00,,SKC,0.00,VWS V14.01,2013-05-17 14:35:00,
2013-05-17 10:40:00,76.5,60.2,30.00,ESE,110,0.0,1.0,57,0.00,,SKC,0.00,VWS V14.01,2013-05-17 14:40:00,
2013-05-17 10:45:00,76.8,60.4,30.00,ESE,110,2.0,3.0,57,0.00,,SKC,0.00,VWS V14.01,2013-05-17 14:45:00,
2013-05-17 10:50:00,77.0,61.6,30.00,ESE,110,0.0,2.0,59,0.00,,SKC,0.00,VWS V14.01,2013-05-17 14:50:00,
2013-05-17 10:55:00,76.5,58.1,30.00,ESE,110,0.0,1.0,53,0.00,,SKC,0.00,VWS V14.01,2013-05-17 14:55:00,
2013-05-17 11:00:00,76.3,59.0,30.00,ESE,110,0.0,1.0,55,0.00,,SKC,0.00,VWS V14.01,2013-05-17 15:00:00,
2013-05-17 11:05:00,76.1,59.3,30.00,ESE,110,1.0,1.0,56,0.00,,SKC,0.00,VWS V14.01,2013-05-17 15:05:00,
2013-05-17 11:10:00,76.0,59.7,30.00,ESE,110,0.0,2.0,57,0.00,,SKC,0.00,VWS V14.01,2013-05-17 15:10:00,
2013-05-17 11:15:00,76.0,61.1,30.00,ESE,110,0.0,2.0,60,0.00,,SKC,0.00,VWS V14.01,2013-05-17 15:15:00,
2013-05-17 11:20:00,75.8,59.5,30.00,ESE,110,0.0,3.0,57,0.00,,SKC,0.00,VWS V14.01,2013-05-17 15:20:00,
2013-05-17 11:25:00,76.1,59.3,30.00,ESE,110,0.0,2.0,56,0.00,,SKC,0.00,VWS V14.01,2013-05-17 15:25:00,
2013-05-17 11:30:00,76.8,60.9,30.00,ESE,108,0.0,2.0,58,0.00,,SKC,0.00,VWS V14.01,2013-05-17 15:30:00,
2013-05-17 11:35:00,77.7,60.3,30.00,ESE,108,0.0,3.0,55,0.00,,SKC,0.00,VWS V14.01,2013-05-17 15:35:00,
2013-05-17 11:40:00,77.7,59.8,30.00,ESE,110,0.0,4.0,54,0.00,,SKC,0.00,VWS V14.01,2013-05-17 15:40:00,
2013-05-17 11:45:00,79.0,60.4,30.00,ESE,110,0.0,3.0,53,0.00,,SKC,0.00,VWS V14.01,2013-05-17 15:45:00,
2013-05-17 11:50:00,79.2,60.1,30.00,ESE,106,0.0,5.0,52,0.00,,SKC,0.00,VWS V14.01,2013-05-17 15:50:00,
2013-05-17 11:55:00,79.6,60.4,30.00,ESE,106,0.0,2.0,52,0.00,,SKC,0.00,VWS V14.01,2013-05-17 15:55:00,
2013-05-17 12:00:00,80.3,58.8,30.00,ESE,106,0.0,3.0,48,0.00,,SKC,0.00,VWS V14.01,2013-05-17 16:00:00,
2013-05-17 12:05:00,80.7,58.6,30.00,SW,235,1.0,5.0,47,0.00,,SKC,0.00,VWS V14.01,2013-05-17 16:05:00,
2013-05-17 12:10:00,80.9,58.8,30.00,SSE,162,4.0,4.0,47,0.00,,SKC,0.00,VWS V14.01,2013-05-17 16:10:00,
2013-05-17 12:15:00,80.3,60.5,30.00,SE,125,0.0,5.0,51,0.00,,SKC,0.00,VWS V14.01,2013-05-17 16:15:00,
2013-05-17 12:20:00,81.4,59.3,30.00,SE,126,0.0,4.0,47,0.00,,SKC,0.00,VWS V14.01,2013-05-17 16:20:00,
2013-05-17 12:25:00,82.2,57.5,30.00,SSE,147,0.0,3.0,43,0.00,,SKC,0.00,VWS V14.01,2013-05-17 16:25:00,
2013-05-17 12:30:00,83.0,60.1,29.99,SE,141,1.0,4.0,46,0.00,,SKC,0.00,VWS V14.01,2013-05-17 16:30:00,
2013-05-17 12:35:00,83.0,57.6,29.99,SE,141,0.0,1.0,42,0.00,,SKC,0.00,VWS V14.01,2013-05-17 16:35:00,
2013-05-17 12:40:00,81.8,58.4,29.99,ESE,110,0.0,5.0,45,0.00,,SKC,0.00,VWS V14.01,2013-05-17 16:40:00,
2013-05-17 12:45:00,82.8,57.4,29.99,ESE,110,1.0,3.0,42,0.00,,SKC,0.00,VWS V14.01,2013-05-17 16:45:00,
2013-05-17 12:50:00,82.2,56.8,29.99,ESE,110,0.0,3.0,42,0.00,,SKC,0.00,VWS V14.01,2013-05-17 16:50:00,
2013-05-17 12:55:00,81.8,57.8,29.99,ESE,110,1.0,3.0,44,0.00,,SKC,0.00,VWS V14.01,2013-05-17 16:55:00,
2013-05-17 13:00:00,81.1,57.8,29.99,ESE,110,0.0,3.0,45,0.00,,SKC,0.00,VWS V14.01,2013-05-17 17:00:00,
2013-05-17 13:05:00,80.9,58.8,29.99,ESE,115,2.0,4.0,47,0.00,,SKC,0.00,VWS V14.01,2013-05-17 17:05:00,
2013-05-17 13:10:00,80.1,57.5,29.99,ESE,115,0.0,4.0,46,0.00,,SKC,0.00,VWS V14.01,2013-05-17 17:10:00,
2013-05-17 13:15:00,80.3,58.2,29.98,ESE,115,1.0,3.0,47,0.00,,SKC,0.00,VWS V14.01,2013-05-17 17:15:00,
2013-05-17 13:20:00,80.7,58.0,29.98,ESE,117,0.0,4.0,46,0.00,,SKC,0.00,VWS V14.01,2013-05-17 17:20:00,
2013-05-17 13:25:00,80.7,59.2,29.98,ESE,117,0.0,2.0,48,0.00,,SKC,0.00,VWS V14.01,2013-05-17 17:25:00,
2013-05-17 13:30:00,81.2,59.7,29.98,SE,124,0.0,3.0,48,0.00,,SKC,0.00,VWS V14.01,2013-05-17 17:30:00,
2013-05-17 13:35:00,81.8,59.6,29.98,ESE,123,0.0,4.0,47,0.00,,SKC,0.00,VWS V14.01,2013-05-17 17:35:00,
2013-05-17 13:40:00,81.8,57.8,29.98,WSW,240,0.0,6.0,44,0.00,,SKC,0.00,VWS V14.01,2013-05-17 17:40:00,
2013-05-17 13:45:00,81.1,58.4,29.98,SE,127,0.0,4.0,46,0.00,,SKC,0.00,VWS V14.01,2013-05-17 17:45:00,
2013-05-17 13:50:00,80.7,59.2,29.98,SE,127,0.0,3.0,48,0.00,,SKC,0.00,VWS V14.01,2013-05-17 17:50:00,
2013-05-17 13:55:00,81.2,58.5,29.98,SE,140,1.0,5.0,46,0.00,,SKC,0.00,VWS V14.01,2013-05-17 17:55:00,
2013-05-17 14:00:00,81.1,59.0,29.98,SE,140,0.0,3.0,47,0.00,,SKC,0.00,VWS V14.01,2013-05-17 18:00:00,
2013-05-17 14:05:00,80.9,57.6,29.98,SE,127,1.0,4.0,45,0.00,,SKC,0.00,VWS V14.01,2013-05-17 18:05:00,
2013-05-17 14:10:00,79.9,60.7,29.98,SE,124,0.0,5.0,52,0.00,,SKC,0.00,VWS V14.01,2013-05-17 18:10:00,
2013-05-17 14:15:00,79.9,60.2,29.98,SE,124,1.0,6.0,51,0.00,,SKC,0.00,VWS V14.01,2013-05-17 18:15:00,
2013-05-17 14:20:00,80.3,58.8,29.98,ESE,113,2.0,7.0,48,0.00,,SKC,0.00,VWS V14.01,2013-05-17 18:20:00,
2013-05-17 14:25:00,79.8,59.5,29.98,ESE,122,0.0,6.0,50,0.00,,SKC,0.00,VWS V14.01,2013-05-17 18:25:00,
2013-05-17 14:30:00,80.3,60.0,29.98,ESE,122,0.0,1.0,50,0.00,,SKC,0.00,VWS V14.01,2013-05-17 18:30:00,
2013-05-17 14:35:00,80.3,59.4,29.98,ESE,122,0.0,0.0,49,0.00,,SKC,0.00,VWS V14.01,2013-05-17 18:35:00,
2013-05-17 14:40:00,80.3,58.8,29.98,ESE,115,1.0,3.0,48,0.00,,SKC,0.00,VWS V14.01,2013-05-17 18:40:00,
2013-05-17 14:45:00,80.3,61.1,29.97,ESE,114,0.0,4.0,52,0.00,,SKC,0.00,VWS V14.01,2013-05-17 18:45:00,
2013-05-17 14:50:00,80.1,60.4,29.97,ESE,121,0.0,5.0,51,0.00,,SKC,0.00,VWS V14.01,2013-05-17 18:50:00,
2013-05-17 14:55:00,80.5,61.3,29.97,ESE,121,0.0,3.0,52,0.00,,SKC,0.00,VWS V14.01,2013-05-17 18:55:00,
2013-05-17 15:00:00,80.3,59.4,29.97,ESE,112,0.0,5.0,49,0.00,,SKC,0.00,VWS V14.01,2013-05-17 19:00:00,
2013-05-17 15:05:00,79.8,60.6,29.97,ESE,112,0.0,4.0,52,0.00,,SKC,0.00,VWS V14.01,2013-05-17 19:05:00,
2013-05-17 15:10:00,79.0,59.9,29.97,ESE,112,0.0,4.0,52,0.00,,SKC,0.00,VWS V14.01,2013-05-17 19:10:00,
2013-05-17 15:15:00,78.5,59.4,29.97,ESE,112,0.0,4.0,52,0.00,,SKC,0.00,VWS V14.01,2013-05-17 19:15:00,
2013-05-17 15:20:00,78.3,61.3,29.97,ESE,120,0.0,5.0,56,0.00,,SKC,0.00,VWS V14.01,2013-05-17 19:20:00,
2013-05-17 15:25:00,78.5,60.0,29.97,ESE,120,0.0,0.0,53,0.00,,SKC,0.00,VWS V14.01,2013-05-17 19:25:00,
2013-05-17 15:30:00,78.3,60.8,29.97,ESE,120,0.0,1.0,55,0.00,,SKC,0.00,VWS V14.01,2013-05-17 19:30:00,
2013-05-17 15:35:00,78.3,59.8,29.97,ESE,120,0.0,2.0,53,0.00,,SKC,0.00,VWS V14.01,2013-05-17 19:35:00,
2013-05-17 15:40:00,78.6,60.6,29.97,ESE,120,2.0,3.0,54,0.00,,SKC,0.00,VWS V14.01,2013-05-17 19:40:00,
2013-05-17 15:45:00,79.0,62.5,29.97,ESE,120,1.0,2.0,57,0.00,,SKC,0.00,VWS V14.01,2013-05-17 19:45:00,
2013-05-17 15:50:00,79.4,60.3,29.97,ESE,120,0.0,4.0,52,0.00,,SKC,0.00,VWS V14.01,2013-05-17 19:50:00,
2013-05-17 15:55:00,79.8,58.4,29.97,ESE,123,0.0,5.0,48,0.00,,SKC,0.00,VWS V14.01,2013-05-17 19:55:00,
2013-05-17 16:00:00,80.1,58.7,29.96,ESE,123,0.0,4.0,48,0.00,,SKC,0.00,VWS V14.01,2013-05-17 20:00:00,
2013-05-17 16:05:00,80.1,57.5,29.96,ESE,123,0.0,2.0,46,0.00,,SKC,0.00,VWS V14.01,2013-05-17 20:05:00,
2013-05-17 16:10:00,79.6,58.2,29.96,SE,127,0.0,5.0,48,0.00,,SKC,0.00,VWS V14.01,2013-05-17 20:10:00,
2013-05-17 16:15:00,79.0,57.7,29.96,SE,129,4.0,6.0,48,0.00,,SKC,0.00,VWS V14.01,2013-05-17 20:15:00,
2013-05-17 16:20:00,78.5,58.3,29.96,SE,129,0.0,2.0,50,0.00,,SKC,0.00,VWS V14.01,2013-05-17 20:20:00,
2013-05-17 16:25:00,78.3,58.2,29.96,SE,129,1.0,4.0,50,0.00,,SKC,0.00,VWS V14.01,2013-05-17 20:25:00,
2013-05-17 16:30:00,78.1,58.0,29.96,SE,129,2.0,2.0,50,0.00,,SKC,0.00,VWS V14.01,2013-05-17 20:30:00,
2013-05-17 16:35:00,78.1,58.0,29.96,SE,129,0.0,6.0,50,0.00,,SKC,0.00,VWS V14.01,2013-05-17 20:35:00,
2013-05-17 16:40:00,78.1,57.4,29.96,SE,129,1.0,4.0,49,0.00,,SKC,0.00,VWS V14.01,2013-05-17 20:40:00,
2013-05-17 16:45:00,78.3,57.6,29.96,SE,138,0.0,4.0,49,0.00,,SKC,0.00,VWS V14.01,2013-05-17 20:45:00,
2013-05-17 16:50:00,78.6,57.3,29.96,SE,143,0.0,6.0,48,0.00,,SKC,0.00,VWS V14.01,2013-05-17 20:50:00,
2013-05-17 16:55:00,78.5,58.3,29.96,SE,141,0.0,4.0,50,0.00,,SKC,0.00,VWS V14.01,2013-05-17 20:55:00,
2013-05-17 17:00:00,78.5,57.2,29.96,SE,141,1.0,5.0,48,0.00,,SKC,0.00,VWS V14.01,2013-05-17 21:00:00,
2013-05-17 17:05:00,77.9,57.2,29.96,SSE,155,2.0,2.0,49,0.00,,SKC,0.00,VWS V14.01,2013-05-17 21:05:00,
2013-05-17 17:10:00,77.7,57.6,29.96,SSE,148,0.0,3.0,50,0.00,,SKC,0.00,VWS V14.01,2013-05-17 21:10:00,
2013-05-17 17:15:00,77.6,57.5,29.96,SSE,148,0.0,2.0,50,0.00,,SKC,0.00,VWS V14.01,2013-05-17 21:15:00,
2013-05-17 17:20:00,77.4,57.9,29.96,SE,142,0.0,5.0,51,0.00,,SKC,0.00,VWS V14.01,2013-05-17 21:20:00,
2013-05-17 17:25:00,77.0,58.6,29.96,SE,143,2.0,5.0,53,0.00,,SKC,0.00,VWS V14.01,2013-05-17 21:25:00,
2013-05-17 17:30:00,77.0,58.0,29.96,ESE,110,0.0,2.0,52,0.00,,SKC,0.00,VWS V14.01,2013-05-17 21:30:00,
2013-05-17 17:35:00,77.0,58.6,29.96,ESE,110,0.0,0.0,53,0.00,,SKC,0.00,VWS V14.01,2013-05-17 21:35:00,
2013-05-17 17:40:00,77.0,58.6,29.96,SSE,147,0.0,0.0,53,0.00,,SKC,0.00,VWS V14.01,2013-05-17 21:40:00,
2013-05-17 17:45:00,77.0,58.6,29.96,SSE,153,0.0,2.0,53,0.00,,SKC,0.00,VWS V14.01,2013-05-17 21:45:00,
2013-05-17 17:50:00,77.4,58.4,29.96,SSE,153,0.0,1.0,52,0.00,,SKC,0.00,VWS V14.01,2013-05-17 21:50:00,
2013-05-17 17:55:00,77.4,59.5,29.96,SSE,153,0.0,0.0,54,0.00,,SKC,0.00,VWS V14.01,2013-05-17 21:55:00,
2013-05-17 18:00:00,77.2,59.3,29.96,SSE,153,0.0,0.0,54,0.00,,SKC,0.00,VWS V14.01,2013-05-17 22:00:00,
2013-05-17 18:05:00,77.2,59.3,29.96,SSE,153,0.0,1.0,54,0.00,,SKC,0.00,VWS V14.01,2013-05-17 22:05:00,
2013-05-17 18:10:00,77.4,60.0,29.96,SSE,153,0.0,0.0,55,0.00,,SKC,0.00,VWS V14.01,2013-05-17 22:10:00,
2013-05-17 18:15:00,77.6,59.7,29.95,SSE,153,0.0,0.0,54,0.00,,SKC,0.00,VWS V14.01,2013-05-17 22:15:00,
2013-05-17 18:20:00,77.4,59.5,29.95,SSE,153,0.0,1.0,54,0.00,,SKC,0.00,VWS V14.01,2013-05-17 22:20:00,
2013-05-17 18:25:00,77.2,58.8,29.95,South,169,0.0,0.0,53,0.00,,SKC,0.00,VWS V14.01,2013-05-17 22:25:00,
2013-05-17 18:30:00,77.0,59.1,29.96,South,169,0.0,0.0,54,0.00,,SKC,0.00,VWS V14.01,2013-05-17 22:30:00,
2013-05-17 18:35:00,77.0,58.6,29.96,South,169,0.0,0.0,53,0.00,,SKC,0.00,VWS V14.01,2013-05-17 22:35:00,
2013-05-17 18:40:00,76.8,58.9,29.96,South,169,0.0,0.0,54,0.00,,SKC,0.00,VWS V14.01,2013-05-17 22:40:00,
2013-05-17 18:45:00,76.7,59.3,29.96,South,169,0.0,0.0,55,0.00,,SKC,0.00,VWS V14.01,2013-05-17 22:45:00,
2013-05-17 18:50:00,76.5,59.2,29.96,South,169,0.0,0.0,55,0.00,,SKC,0.00,VWS V14.01,2013-05-17 22:50:00,
2013-05-17 18:55:00,76.1,59.3,29.96,South,171,0.0,1.0,56,0.00,,SKC,0.00,VWS V14.01,2013-05-17 22:55:00,
2013-05-17 19:00:00,76.0,59.7,29.95,South,171,1.0,1.0,57,0.00,,SKC,0.00,VWS V14.01,2013-05-17 23:00:00,
2013-05-17 19:05:00,75.6,59.3,29.95,South,171,0.0,1.0,57,0.00,,SKC,0.00,VWS V14.01,2013-05-17 23:05:00,
2013-05-17 19:10:00,75.6,59.8,29.95,South,171,0.0,0.0,58,0.00,,SKC,0.00,VWS V14.01,2013-05-17 23:10:00,
2013-05-17 19:15:00,75.4,60.1,29.95,South,171,0.0,0.0,59,0.00,,SKC,0.00,VWS V14.01,2013-05-17 23:15:00,
2013-05-17 19:20:00,75.4,61.0,29.95,SSW,195,0.0,0.0,61,0.00,,SKC,0.00,VWS V14.01,2013-05-17 23:20:00,
2013-05-17 19:25:00,74.9,61.9,29.95,SE,141,1.0,5.0,64,0.00,,SKC,0.00,VWS V14.01,2013-05-17 23:25:00,
2013-05-17 19:30:00,72.7,62.4,29.96,SE,139,0.0,4.0,70,0.01,,SKC,0.01,VWS V14.01,2013-05-17 23:30:00,
2013-05-17 19:35:00,71.1,64.3,29.96,West,276,4.0,12.0,79,0.01,,SKC,0.01,VWS V14.01,2013-05-17 23:35:00,
2013-05-17 19:40:00,68.4,62.7,29.96,WNW,291,6.0,13.0,82,0.01,,SKC,0.01,VWS V14.01,2013-05-17 23:40:00,
2013-05-17 19:45:00,66.9,62.6,29.98,WNW,283,6.0,9.0,86,0.01,,SKC,0.01,VWS V14.01,2013-05-17 23:45:00,
2013-05-17 19:50:00,66.4,62.1,29.98,West,279,11.0,17.0,86,0.01,,SKC,0.01,VWS V14.01,2013-05-17 23:50:00,
2013-05-17 19:55:00,66.1,61.5,29.98,WNW,284,13.0,17.0,85,0.01,,SKC,0.01,VWS V14.01,2013-05-17 23:55:00,
2013-05-17 20:00:00,66.0,61.4,29.99,WSW,243,3.0,15.0,85,0.01,,SKC,0.01,VWS V14.01,2013-05-18 00:00:00,
2013-05-17 20:05:00,66.0,61.0,29.99,North,359,4.0,7.0,84,0.02,,SKC,0.02,VWS V14.01,2013-05-18 00:05:00,
2013-05-17 20:10:00,65.6,61.6,29.99,ENE,72,4.0,5.0,87,0.02,,SKC,0.02,VWS V14.01,2013-05-18 00:10:00,
2013-05-17 20:15:00,65.6,61.0,29.99,East,94,6.0,10.0,85,0.02,,SKC,0.02,VWS V14.01,2013-05-18 00:15:00,
2013-05-17 20:20:00,65.8,60.8,29.99,WNW,285,0.0,5.0,84,0.02,,SKC,0.02,VWS V14.01,2013-05-18 00:20:00,
2013-05-17 20:25:00,65.6,61.3,29.99,NW,314,6.0,8.0,86,0.02,,SKC,0.02,VWS V14.01,2013-05-18 00:25:00,
2013-05-17 20:30:00,65.3,61.3,29.99,WNW,298,2.0,6.0,87,0.02,,SKC,0.02,VWS V14.01,2013-05-18 00:30:00,
2013-05-17 20:35:00,65.2,61.2,29.99,WNW,297,0.0,5.0,87,0.01,,SKC,0.02,VWS V14.01,2013-05-18 00:35:00,
2013-05-17 20:40:00,65.0,61.4,29.99,WNW,290,3.0,6.0,88,0.01,,SKC,0.02,VWS V14.01,2013-05-18 00:40:00,
2013-05-17 20:45:00,64.8,61.2,29.99,WNW,289,1.0,7.0,88,0.01,,SKC,0.02,VWS V14.01,2013-05-18 00:45:00,
2013-05-17 20:50:00,64.7,61.1,29.99,WNW,289,0.0,4.0,88,0.01,,SKC,0.02,VWS V14.01,2013-05-18 00:50:00,
2013-05-17 20:55:00,64.5,60.9,29.99,WNW,289,0.0,0.0,88,0.01,,SKC,0.02,VWS V14.01,2013-05-18 00:55:00,
2013-05-17 21:00:00,64.3,60.7,29.99,WNW,289,0.0,0.0,88,0.01,,SKC,0.02,VWS V14.01,2013-05-18 01:00:00,
2013-05-17 21:05:00,64.3,60.3,29.99,WNW,289,0.0,0.0,87,0.01,,SKC,0.02,VWS V14.01,2013-05-18 01:05:00,
2013-05-17 21:10:00,64.5,61.2,29.99,WNW,289,0.0,0.0,89,0.00,,SKC,0.02,VWS V14.01,2013-05-18 01:10:00,
2013-05-17 21:15:00,64.5,61.2,29.98,WNW,289,0.0,0.0,89,0.00,,SKC,0.02,VWS V14.01,2013-05-18 01:15:00,
2013-05-17 21:20:00,64.2,60.9,29.98,WNW,289,0.0,0.0,89,0.00,,SKC,0.02,VWS V14.01,2013-05-18 01:20:00,
2013-05-17 21:25:00,64.0,61.0,29.98,WNW,289,0.0,0.0,90,0.00,,SKC,0.02,VWS V14.01,2013-05-18 01:25:00,
2013-05-17 21:30:00,63.7,61.0,29.99,WNW,289,0.0,0.0,91,0.00,,SKC,0.02,VWS V14.01,2013-05-18 01:30:00,
2013-05-17 21:35:00,63.4,61.0,29.99,WNW,289,0.0,0.0,92,0.00,,SKC,0.02,VWS V14.01,2013-05-18 01:35:00,
2013-05-17 21:40:00,63.4,61.0,29.99,WNW,289,0.0,0.0,92,0.00,,SKC,0.02,VWS V14.01,2013-05-18 01:40:00,
2013-05-17 21:45:00,63.2,61.2,29.99,WNW,289,0.0,3.0,93,0.00,,SKC,0.02,VWS V14.01,2013-05-18 01:45:00,
2013-05-17 21:50:00,63.2,61.2,29.99,WNW,289,1.0,1.0,93,0.00,,SKC,0.02,VWS V14.01,2013-05-18 01:50:00,
2013-05-17 21:55:00,63.1,61.3,29.99,WNW,289,0.0,1.0,94,0.00,,SKC,0.02,VWS V14.01,2013-05-18 01:55:00,
2013-05-17 22:00:00,62.9,61.2,30.00,WNW,289,0.0,2.0,94,0.00,,SKC,0.02,VWS V14.01,2013-05-18 02:00:00,
2013-05-17 22:05:00,62.9,61.2,30.00,WNW,289,0.0,0.0,94,0.00,,SKC,0.02,VWS V14.01,2013-05-18 02:05:00,
2013-05-17 22:10:00,62.9,61.5,30.00,WNW,289,0.0,0.0,95,0.00,,SKC,0.02,VWS V14.01,2013-05-18 02:10:00,
2013-05-17 22:15:00,62.9,61.5,30.00,WNW,289,0.0,0.0,95,0.00,,SKC,0.02,VWS V14.01,2013-05-18 02:15:00,
2013-05-17 22:20:00,62.7,61.2,30.00,WNW,289,0.0,0.0,95,0.00,,SKC,0.02,VWS V14.01,2013-05-18 02:20:00,
2013-05-17 22:25:00,62.6,61.2,30.00,WNW,289,0.0,1.0,95,0.00,,SKC,0.02,VWS V14.01,2013-05-18 02:25:00,
2013-05-17 22:30:00,62.6,61.2,30.01,WNW,289,0.0,0.0,95,0.00,,SKC,0.02,VWS V14.01,2013-05-18 02:30:00,
2013-05-17 22:35:00,62.6,61.2,30.01,WNW,289,0.0,0.0,95,0.00,,SKC,0.02,VWS V14.01,2013-05-18 02:35:00,
2013-05-17 22:40:00,62.6,61.2,30.01,WNW,289,0.0,0.0,95,0.00,,SKC,0.02,VWS V14.01,2013-05-18 02:40:00,
2013-05-17 22:45:00,62.6,61.5,30.01,WNW,289,0.0,0.0,96,0.00,,SKC,0.02,VWS V14.01,2013-05-18 02:45:00,
2013-05-17 22:50:00,62.6,61.5,30.01,WNW,289,0.0,0.0,96,0.00,,SKC,0.02,VWS V14.01,2013-05-18 02:50:00,
2013-05-17 22:55:00,62.6,61.2,30.01,WNW,289,0.0,0.0,95,0.00,,SKC,0.02,VWS V14.01,2013-05-18 02:55:00,
2013-05-17 23:00:00,62.4,61.2,30.02,WNW,289,0.0,0.0,96,0.00,,SKC,0.02,VWS V14.01,2013-05-18 03:00:00,
2013-05-17 23:05:00,62.4,61.2,30.02,WNW,289,0.0,0.0,96,0.00,,SKC,0.02,VWS V14.01,2013-05-18 03:05:00,
2013-05-17 23:10:00,62.4,61.2,30.02,WNW,289,0.0,0.0,96,0.00,,SKC,0.02,VWS V14.01,2013-05-18 03:10:00,
2013-05-17 23:15:00,62.3,61.2,30.01,WNW,289,0.0,0.0,96,0.00,,SKC,0.02,VWS V14.01,2013-05-18 03:15:00,
2013-05-17 23:20:00,62.3,61.2,30.01,WNW,289,0.0,1.0,96,0.00,,SKC,0.02,VWS V14.01,2013-05-18 03:20:00,
2013-05-17 23:25:00,62.3,61.2,30.01,WNW,289,0.0,2.0,96,0.00,,SKC,0.02,VWS V14.01,2013-05-18 03:25:00,
2013-05-17 23:30:00,62.1,61.0,30.01,WNW,289,0.0,0.0,96,0.00,,SKC,0.02,VWS V14.01,2013-05-18 03:30:00,
2013-05-17 23:35:00,62.3,61.2,30.01,WNW,289,0.0,2.0,96,0.00,,SKC,0.02,VWS V14.01,2013-05-18 03:35:00,
2013-05-17 23:40:00,62.3,61.2,30.01,WNW,289,2.0,3.0,96,0.00,,SKC,0.02,VWS V14.01,2013-05-18 03:40:00,
2013-05-17 23:45:00,62.3,61.4,30.00,WNW,289,0.0,1.0,97,0.00,,SKC,0.02,VWS V14.01,2013-05-18 03:45:00,
2013-05-17 23:50:00,62.4,61.5,30.00,WNW,289,0.0,0.0,97,0.00,,SKC,0.02,VWS V14.01,2013-05-18 03:50:00,
2013-05-17 23:55:00,62.1,61.0,30.00,WNW,289,0.0,0.0,96,0.00,,SKC,0.02,VWS V14.01,2013-05-18 03:55:00,